| Date | Time | Temp. (oF) | Dew Point (oF) | Rel. Hum. (%) | Press. (in.) | Wind Dir. | Wind Speed (mph) | Hourly Rainfall (in.) |
|
|---|---|---|---|---|---|---|---|---|---|
| 1 | 04/28 | 00:00 | 43 | 31 | 63 | 30.21 | S | 0 | 0.00 |
| 2 | 04/27 | 23:00 | 45 | 29 | 55 | 30.19 | NNE | 0 | 0.00 |
| 3 | 04/27 | 22:00 | 46 | 30 | 54 | 30.16 | NE | 1 | 0.00 |
| 4 | 04/27 | 21:00 | 49 | 29 | 46 | 30.12 | NW | 2 | 0.00 |
| 5 | 04/27 | 20:00 | 50 | 28 | 44 | 30.08 | WNW | 1 | 0.00 |
| 6 | 04/27 | 19:00 | 53 | 29 | 41 | 30.06 | NW | 6 | 0.00 |
| 7 | 04/27 | 18:00 | 53 | 30 | 43 | 30.05 | NW | 9 | 0.00 |
| 8 | 04/27 | 17:00 | 53 | 33 | 47 | 30.04 | SSW | 5 | 0.00 |
| 9 | 04/27 | 16:00 | 53 | 32 | 45 | 30.04 | WNW | 7 | 0.00 |
| 10 | 04/27 | 15:00 | 52 | 31 | 46 | 30.04 | N | 6 | 0.00 |
| 11 | 04/27 | 14:00 | 50 | 32 | 51 | 30.05 | NW | 15 | 0.00 |
| 12 | 04/27 | 13:00 | 50 | 32 | 50 | 30.05 | SE | 11 | 0.00 |
| 13 | 04/27 | 12:00 | 46 | 32 | 58 | 30.05 | SSE | 5 | 0.00 |
| 14 | 04/27 | 11:00 | 46 | 31 | 57 | 30.04 | NNW | 8 | 0.00 |
| 15 | 04/27 | 10:00 | 46 | 31 | 57 | 30.00 | NNE | 11 | 0.00 |
| 16 | 04/27 | 09:00 | 46 | 32 | 58 | 29.98 | WNW | 11 | 0.00 |
| 17 | 04/27 | 08:00 | 46 | 34 | 65 | 29.96 | WNW | 7 | 0.00 |
| 18 | 04/27 | 07:00 | 43 | 35 | 76 | 29.93 | NNW | 5 | 0.00 |
| 19 | 04/27 | 06:00 | 44 | 35 | 71 | 29.90 | NW | 3 | 0.00 |
| 20 | 04/27 | 05:00 | 46 | 36 | 68 | 29.87 | NW | 2 | 0.00 |
| 21 | 04/27 | 04:00 | 47 | 34 | 61 | 29.84 | NNW | 7 | 0.00 |
| 22 | 04/27 | 03:00 | 50 | 42 | 74 | 29.79 | WNW | 9 | 0.00 |
| 23 | 04/27 | 02:00 | 52 | 42 | 70 | 29.76 | WNW | 9 | 0.00 |
| 24 | 04/27 | 01:00 | 54 | 47 | 79 | 29.75 | WNW | 10 | 0.00 |